Airfield :
LOGIN :

Register | Disclaimer

   EN    FR    IT 

 










Legend :    VFR   Marginal VFR   IFR   Intensive IFR   Very Intensive IFR
Visi :
Ceiling :
>= 8 km
>= 3000ft
5 to 8 km
1000 to 3000 ft
1500m to 5 km
500 to 1000 ft
800 to 1500m
200 to 500 ft
< 800m
< 200 ft
Symbols :   Thunderstorms  Fog  Heavy snow  Heavy precipitations  Wind > 20 kt
SIGMETs :     Misc.  Thunderstorms  Icing  Turbulence  Mountain Waves  Volcanic Ashes






- Airport Elevation : 285 ft
- IATA code : OZP


LEMO - Sevilla Moron

CURRENT METAR :
  • 080300Z 20006KT 7000 FEW010 BKN018 12/12 Q1014 NOSIG

EXPIRED METARs :
  • 080230Z 21004KT 170V240 8000 FEW011 BKN014 12/12 Q1015 NOSIG
  • 080200Z 20006KT 180V240 8000 BKN012 12/12 Q1015 NOSIG
  • 080130Z 20007KT 170V230 9000 BKN012 12/12 Q1015 NOSIG
  • 080100Z 20005KT 160V250 9000 BKN012 11/11 Q1015 NOSIG
  • 080030Z 19006KT 9999 FEW012 SCT020 09/09 Q1016 NOSIG

TAF TAF LEMO
Valid from the 08 at 03:00 until the 09 at 03:00 UTC


080200Z 0803/0903 22006KT 9999 FEW030 TX17/0815Z TN08/0903Z
TEMPO 0803/0812 3000 BR BKN010
PROB30
TEMPO 0803/0810 0600 FG VV002



MET'MAP, your aeronautical weather chart ! - Copyright ORBIFLY December 2007 - Disclaimer

ORBIFLY MET'MAP TEAM :

Programming & Development : Alexandra Zaïnal
Concept & original design : Baudouin d'Aumeries
Assistance for programming : Marc-Olivier Méhu
Technical & hardware support : Manuel Goepfert

Contact : metmap@orbifly.com




SOURCES & CREDITS :

   NOAA